createdAt,value
2023-02-24T00:00:38.490Z,0.57
2023-02-24T00:03:44.827Z,1.03
2023-02-24T00:06:49.147Z,0.97
2023-02-24T00:09:52.103Z,0.77
2023-02-24T00:12:55.036Z,1.00
2023-02-24T00:16:05.054Z,0.93
2023-02-24T00:19:08.116Z,1.10
2023-02-24T00:22:11.332Z,0.90
2023-02-24T00:25:14.565Z,1.20
2023-02-24T00:28:17.567Z,1.10
2023-02-24T00:31:24.389Z,1.47
2023-02-24T00:34:27.978Z,0.90
2023-02-24T00:37:31.097Z,1.10
2023-02-24T00:40:37.148Z,1.10
2023-02-24T00:43:40.205Z,0.97
2023-02-24T00:46:46.940Z,0.70
2023-02-24T00:49:50.339Z,0.90
2023-02-24T00:52:53.330Z,1.90
2023-02-24T00:56:00.480Z,1.10
2023-02-24T00:59:04.389Z,0.70
2023-02-24T01:02:08.849Z,1.10
2023-02-24T01:05:12.942Z,0.70
2023-02-24T01:08:18.036Z,1.00
2023-02-24T01:11:40.206Z,0.80
2023-02-24T01:14:45.996Z,1.10
2023-02-24T01:17:50.413Z,1.10
2023-02-24T01:20:53.761Z,1.00
2023-02-24T01:23:56.845Z,1.00
2023-02-24T01:27:00.018Z,1.07
2023-02-24T01:30:04.862Z,0.97
2023-02-24T01:33:09.441Z,0.90
2023-02-24T01:36:15.620Z,0.93
2023-02-24T01:39:18.752Z,1.63
2023-02-24T01:42:23.358Z,1.20
2023-02-24T01:45:28.867Z,1.20
2023-02-24T01:48:33.453Z,1.20
2023-02-24T01:51:41.403Z,1.50
2023-02-24T01:54:49.979Z,1.00
2023-02-24T01:57:55.219Z,1.93
2023-02-24T02:00:58.260Z,1.40
2023-02-24T02:04:06.325Z,1.00
2023-02-24T02:07:11.173Z,0.77
2023-02-24T02:10:15.133Z,0.80
2023-02-24T02:13:21.062Z,0.80
2023-02-24T02:16:51.413Z,1.00
2023-02-24T02:20:23.224Z,0.80
2023-02-24T02:23:49.740Z,0.90
2023-02-24T02:27:15.387Z,1.20
2023-02-24T02:30:56.270Z,0.93
2023-02-24T02:34:26.337Z,0.63
2023-02-24T02:37:34.852Z,1.10
2023-02-24T02:40:41.933Z,1.10
2023-02-24T02:43:52.520Z,0.90
2023-02-24T02:47:01.488Z,0.97
2023-02-24T02:50:18.550Z,0.80
2023-02-24T02:53:28.716Z,0.87
2023-02-24T02:56:37.444Z,1.10
2023-02-24T02:59:49.249Z,1.00
2023-02-24T03:02:56.212Z,0.70
2023-02-24T03:06:04.934Z,0.87
2023-02-24T03:09:16.007Z,0.70
2023-02-24T03:12:22.394Z,2.20
2023-02-24T03:15:27.866Z,0.80
2023-02-24T03:18:34.911Z,0.97
2023-02-24T03:21:41.533Z,1.10
2023-02-24T03:24:45.844Z,1.13
2023-02-24T03:27:52.936Z,1.00
2023-02-24T03:31:03.528Z,0.70
2023-02-24T03:34:10.844Z,0.80
2023-02-24T03:37:15.375Z,1.13
2023-02-24T03:40:21.093Z,1.10
2023-02-24T03:43:27.100Z,1.13
2023-02-24T03:46:31.084Z,1.03
2023-02-24T03:49:38.231Z,1.20
2023-02-24T03:52:49.052Z,1.13
2023-02-24T03:56:03.457Z,0.90
2023-02-24T03:59:15.263Z,0.77
2023-02-24T04:02:23.450Z,0.90
2023-02-24T04:05:29.927Z,0.83
2023-02-24T04:08:41.118Z,1.67
2023-02-24T04:11:48.746Z,0.90
2023-02-24T04:14:57.683Z,0.77
2023-02-24T04:18:05.189Z,1.10
2023-02-24T04:21:08.780Z,0.50
2023-02-24T04:24:15.825Z,0.80
2023-02-24T04:27:19.513Z,0.90
2023-02-24T04:30:23.626Z,0.80
2023-02-24T04:33:26.725Z,1.07
2023-02-24T04:36:29.648Z,0.80
2023-02-24T04:39:33.982Z,0.87
2023-02-24T04:42:40.924Z,1.00
2023-02-24T04:45:44.319Z,1.37
2023-02-24T04:48:47.387Z,0.90
2023-02-24T04:51:51.564Z,2.07
2023-02-24T04:54:55.954Z,0.80
2023-02-24T04:57:59.384Z,0.90
2023-02-24T05:01:08.534Z,1.50
2023-02-24T05:04:13.898Z,0.97
2023-02-24T05:07:16.947Z,0.70
2023-02-24T05:10:22.459Z,1.13
2023-02-24T05:13:28.206Z,0.97
2023-02-24T05:16:31.891Z,0.80
2023-02-24T05:19:52.340Z,1.00
2023-02-24T05:22:56.536Z,1.03
2023-02-24T05:26:01.244Z,1.10
2023-02-24T05:29:06.951Z,0.97
2023-02-24T05:32:10.331Z,0.80
2023-02-24T05:35:14.309Z,1.00
2023-02-24T05:38:19.695Z,1.00
2023-02-24T05:41:32.363Z,1.23
2023-02-24T05:44:36.870Z,0.90
2023-02-24T05:47:40.192Z,0.70
2023-02-24T05:50:46.185Z,1.60
2023-02-24T05:53:49.164Z,0.63
2023-02-24T05:56:53.583Z,0.93
2023-02-24T05:59:56.845Z,0.80
2023-02-24T06:03:08.331Z,0.80
2023-02-24T06:06:11.424Z,1.03
2023-02-24T06:09:15.202Z,1.23
2023-02-24T06:12:19.582Z,0.73
2023-02-24T06:15:22.590Z,0.63
2023-02-24T06:18:25.581Z,1.43
2023-02-24T06:21:29.910Z,0.90
2023-02-24T06:24:33.939Z,0.93
2023-02-24T06:27:39.051Z,0.93
2023-02-24T06:30:42.033Z,1.30
2023-02-24T06:33:46.108Z,1.20
2023-02-24T06:36:49.686Z,1.10
2023-02-24T06:39:52.663Z,1.00
2023-02-24T06:42:57.038Z,1.60
2023-02-24T06:46:02.525Z,1.70
2023-02-24T06:49:05.821Z,1.30
2023-02-24T06:52:08.870Z,1.17
2023-02-24T06:55:25.268Z,1.90
2023-02-24T06:58:31.597Z,1.70
2023-02-24T07:01:36.235Z,1.27
2023-02-24T07:04:43.979Z,1.20
2023-02-24T07:07:47.338Z,1.50
2023-02-24T07:10:55.977Z,1.80
2023-02-24T07:14:01.216Z,1.10
2023-02-24T07:17:05.756Z,1.37
2023-02-24T07:20:25.071Z,1.23
2023-02-24T07:23:29.380Z,1.80
2023-02-24T07:26:33.711Z,1.30
2023-02-24T07:29:38.697Z,1.10
2023-02-24T07:32:42.541Z,2.13
2023-02-24T07:35:50.988Z,1.63
2023-02-24T07:38:55.400Z,1.20
2023-02-24T07:41:59.721Z,1.60
2023-02-24T07:45:04.794Z,1.63
2023-02-24T07:48:07.881Z,1.40
2023-02-24T07:51:14.603Z,1.50
2023-02-24T07:54:17.780Z,1.43
2023-02-24T07:57:20.844Z,1.53
2023-02-24T08:00:28.201Z,1.60
2023-02-24T08:03:31.378Z,1.47
2023-02-24T08:06:38.628Z,1.30
2023-02-24T08:10:08.202Z,1.40
2023-02-24T08:13:12.002Z,1.93
2023-02-24T08:16:16.604Z,1.40
2023-02-24T08:19:21.469Z,1.50
2023-02-24T08:22:25.104Z,1.43
2023-02-24T08:25:36.445Z,1.80
2023-02-24T08:28:40.392Z,1.50
2023-02-24T08:31:44.955Z,1.40
2023-02-24T08:34:49.547Z,1.60
2023-02-24T08:37:54.227Z,1.40
2023-02-24T08:41:04.806Z,2.80
2023-02-24T08:44:10.194Z,4.03
2023-02-24T08:47:20.908Z,3.57
2023-02-24T08:50:27.273Z,4.47
2023-02-24T08:53:32.331Z,4.40
2023-02-24T08:56:35.312Z,4.50
2023-02-24T08:59:38.920Z,4.90
2023-02-24T09:02:43.224Z,4.60
2023-02-24T09:05:46.281Z,4.43
2023-02-24T09:08:49.489Z,3.97
2023-02-24T09:11:56.153Z,4.00
2023-02-24T09:15:04.550Z,3.57
2023-02-24T09:18:14.195Z,3.90
2023-02-24T09:21:37.197Z,3.10
2023-02-24T09:24:40.228Z,3.30
2023-02-24T09:27:43.403Z,3.47
2023-02-24T09:30:54.546Z,2.87
2023-02-24T09:34:03.993Z,3.20
2023-02-24T09:37:24.750Z,2.63
2023-02-24T09:40:48.363Z,3.00
2023-02-24T09:43:59.922Z,3.53
2023-02-24T09:47:13.292Z,2.90
2023-02-24T09:50:55.575Z,2.67
2023-02-24T09:53:57.118Z,3.10
2023-02-24T09:57:09.081Z,2.90
2023-02-24T10:00:33.382Z,3.17
2023-02-24T10:03:48.204Z,3.10
2023-02-24T10:06:58.863Z,3.37
2023-02-24T10:10:19.552Z,3.53
2023-02-24T10:13:32.536Z,3.30
2023-02-24T10:16:46.279Z,3.47
2023-02-24T10:19:56.395Z,3.87
2023-02-24T10:23:09.648Z,4.13
2023-02-24T10:26:31.608Z,3.70
2023-02-24T10:29:46.121Z,3.83
2023-02-24T10:32:53.687Z,3.50
2023-02-24T10:36:09.253Z,3.77
2023-02-24T10:39:20.446Z,3.60
2023-02-24T10:42:25.902Z,3.37
2023-02-24T10:45:34.793Z,3.30
2023-02-24T10:48:41.626Z,3.00
2023-02-24T10:51:53.070Z,3.10
2023-02-24T10:55:08.675Z,2.40
2023-02-24T10:58:27.787Z,2.80
2023-02-24T11:01:43.830Z,2.83
2023-02-24T11:05:04.450Z,2.77
2023-02-24T11:08:11.444Z,2.90
2023-02-24T11:11:25.784Z,2.27
2023-02-24T11:14:46.337Z,2.40
2023-02-24T11:17:51.954Z,2.30
2023-02-24T11:20:58.767Z,2.80
2023-02-24T11:24:02.630Z,3.13
2023-02-24T11:27:10.735Z,2.83
2023-02-24T11:30:25.628Z,3.00
2023-02-24T11:33:37.074Z,2.90
2023-02-24T11:36:48.903Z,2.97
2023-02-24T11:39:59.779Z,2.57
2023-02-24T11:43:10.525Z,2.60
2023-02-24T11:46:17.065Z,2.37
2023-02-24T11:49:30.311Z,2.53
2023-02-24T11:52:37.084Z,2.30
2023-02-24T11:55:43.562Z,2.70
2023-02-24T11:58:54.032Z,2.90
2023-02-24T12:02:03.705Z,2.70
2023-02-24T12:05:14.243Z,2.90
2023-02-24T12:08:25.767Z,2.73
2023-02-24T12:11:39.537Z,3.20
2023-02-24T12:14:49.510Z,2.70
2023-02-24T12:17:59.052Z,2.83
2023-02-24T12:21:06.867Z,3.07
2023-02-24T12:24:13.771Z,2.87
2023-02-24T12:27:27.631Z,2.50
2023-02-24T12:30:49.584Z,2.60
2023-02-24T12:34:03.870Z,2.87
2023-02-24T12:37:27.344Z,2.67
2023-02-24T12:40:42.108Z,2.73
2023-02-24T12:43:52.208Z,2.40
2023-02-24T12:47:04.828Z,3.00
2023-02-24T12:50:24.479Z,3.57
2023-02-24T12:53:35.481Z,4.00
2023-02-24T12:56:47.643Z,3.37
2023-02-24T12:59:51.515Z,3.37
2023-02-24T13:03:02.494Z,3.70
2023-02-24T13:06:14.316Z,3.63
2023-02-24T13:09:25.071Z,3.53
2023-02-24T13:12:34.262Z,4.03
2023-02-24T13:15:37.279Z,3.93
2023-02-24T13:18:41.602Z,4.33
2023-02-24T13:21:44.678Z,3.67
2023-02-24T13:24:59.148Z,3.63
2023-02-24T13:28:04.310Z,3.90
2023-02-24T13:31:09.825Z,3.33
2023-02-24T13:34:31.644Z,4.50
2023-02-24T13:37:36.834Z,3.37
2023-02-24T13:40:40.163Z,2.60
2023-02-24T13:43:55.000Z,2.60
2023-02-24T13:47:24.415Z,2.60
2023-02-24T13:50:37.252Z,2.37
2023-02-24T13:53:58.768Z,2.53
2023-02-24T13:57:17.699Z,2.40
2023-02-24T14:00:32.526Z,1.73
2023-02-24T14:03:36.840Z,1.37
2023-02-24T14:06:43.436Z,1.53
2023-02-24T14:09:49.397Z,1.50
2023-02-24T14:13:01.149Z,2.20
2023-02-24T14:16:08.842Z,1.97
2023-02-24T14:19:16.207Z,1.70
2023-02-24T14:22:22.059Z,1.87
2023-02-24T14:25:27.595Z,1.20
2023-02-24T14:28:33.320Z,1.37
2023-02-24T14:31:36.818Z,1.87
2023-02-24T14:34:40.190Z,1.40
2023-02-24T14:37:45.588Z,2.03
2023-02-24T14:40:48.973Z,1.50
2023-02-24T14:43:52.458Z,1.93
2023-02-24T14:46:57.503Z,1.77
2023-02-24T14:50:02.335Z,1.80
2023-02-24T14:53:13.135Z,1.17
2023-02-24T14:56:16.801Z,1.37
2023-02-24T14:59:28.509Z,1.50
2023-02-24T15:02:34.321Z,1.87
2023-02-24T15:05:44.450Z,1.63
2023-02-24T15:08:52.423Z,1.87
2023-02-24T15:11:56.451Z,1.07
2023-02-24T15:15:03.584Z,1.23
2023-02-24T15:18:16.477Z,1.10
2023-02-24T15:21:24.759Z,0.60
2023-02-24T15:24:31.241Z,0.90
2023-02-24T15:27:34.311Z,0.93
2023-02-24T15:30:39.601Z,0.70
2023-02-24T15:33:45.091Z,0.90
2023-02-24T15:36:49.993Z,0.83
2023-02-24T15:40:04.005Z,1.20
2023-02-24T15:43:11.791Z,1.23
2023-02-24T15:46:17.217Z,2.43
2023-02-24T15:49:20.231Z,1.13
2023-02-24T15:52:25.319Z,1.13
2023-02-24T15:55:30.109Z,1.67
2023-02-24T15:58:34.703Z,1.20
2023-02-24T16:01:37.747Z,1.43
2023-02-24T16:04:40.712Z,1.30
2023-02-24T16:07:45.944Z,1.20
2023-02-24T16:10:53.341Z,1.40
2023-02-24T16:13:58.729Z,1.40
2023-02-24T16:17:04.611Z,1.13
2023-02-24T16:20:12.532Z,1.33
2023-02-24T16:23:15.798Z,1.30
2023-02-24T16:26:22.975Z,1.37
2023-02-24T16:29:26.376Z,1.30
2023-02-24T16:32:29.523Z,1.03
2023-02-24T16:35:32.704Z,0.80
2023-02-24T16:38:35.855Z,1.60
2023-02-24T16:41:40.160Z,0.90
2023-02-24T16:44:43.266Z,1.50
2023-02-24T16:47:48.110Z,1.17
2023-02-24T16:50:51.705Z,1.10
2023-02-24T16:53:54.641Z,1.37
2023-02-24T16:56:59.104Z,1.27
2023-02-24T17:00:02.178Z,1.13
2023-02-24T17:03:12.923Z,1.67
2023-02-24T17:06:15.908Z,2.57
2023-02-24T17:09:19.268Z,1.77
2023-02-24T17:12:23.566Z,2.20
2023-02-24T17:15:27.633Z,2.23
2023-02-24T17:18:30.549Z,1.80
2023-02-24T17:21:33.529Z,2.00
2023-02-24T17:24:36.498Z,2.00
2023-02-24T17:27:40.782Z,2.33
2023-02-24T17:30:43.769Z,2.80
2023-02-24T17:33:46.781Z,2.60
2023-02-24T17:36:49.779Z,2.70
2023-02-24T17:39:52.750Z,2.57
2023-02-24T17:42:57.179Z,2.90
2023-02-24T17:46:05.718Z,2.70
2023-02-24T17:49:09.849Z,2.57
2023-02-24T17:52:20.993Z,2.60
2023-02-24T17:55:24.103Z,2.60
2023-02-24T17:58:27.100Z,2.73
2023-02-24T18:01:30.514Z,3.33
2023-02-24T18:04:33.621Z,3.13
2023-02-24T18:07:38.043Z,3.43
2023-02-24T18:10:41.018Z,3.10
2023-02-24T18:13:44.540Z,2.93
2023-02-24T18:16:47.577Z,4.10
2023-02-24T18:19:53.829Z,2.83
2023-02-24T18:22:58.122Z,3.30
2023-02-24T18:26:03.186Z,3.07
2023-02-24T18:29:06.569Z,3.53
2023-02-24T18:32:09.795Z,3.57
2023-02-24T18:35:12.917Z,4.00
2023-02-24T18:38:17.759Z,3.33
2023-02-24T18:41:23.793Z,3.57
2023-02-24T18:44:27.173Z,3.03
2023-02-24T18:47:30.153Z,4.17
2023-02-24T18:50:34.053Z,3.37
2023-02-24T18:53:38.453Z,3.23
2023-02-24T18:56:41.770Z,2.77
2023-02-24T18:59:44.783Z,4.17
2023-02-24T19:02:48.237Z,3.63
2023-02-24T19:05:51.801Z,3.93
2023-02-24T19:08:59.722Z,3.57
2023-02-24T19:12:02.710Z,2.90
2023-02-24T19:15:06.787Z,3.03
2023-02-24T19:18:09.744Z,4.17
2023-02-24T19:21:12.734Z,3.70
2023-02-24T19:24:18.264Z,4.10
2023-02-24T19:27:21.246Z,3.40
2023-02-24T19:30:24.186Z,3.30
2023-02-24T19:33:27.120Z,3.50
2023-02-24T19:36:32.394Z,3.13
2023-02-24T19:39:36.726Z,2.67
2023-02-24T19:42:40.286Z,3.73
2023-02-24T19:45:44.007Z,3.00
2023-02-24T19:48:47.156Z,3.03
2023-02-24T19:51:50.167Z,3.10
2023-02-24T19:54:55.018Z,2.97
2023-02-24T19:57:58.265Z,3.20
2023-02-24T20:01:06.322Z,3.27
2023-02-24T20:04:10.003Z,2.87
2023-02-24T20:07:13.011Z,2.67
2023-02-24T20:10:18.279Z,3.43
2023-02-24T20:13:22.159Z,2.27
2023-02-24T20:16:27.286Z,2.93
2023-02-24T20:19:32.820Z,3.17
2023-02-24T20:22:35.778Z,2.90
2023-02-24T20:25:41.048Z,3.40
2023-02-24T20:28:44.335Z,2.30
2023-02-24T20:31:47.804Z,2.57
2023-02-24T20:34:50.946Z,1.97
2023-02-24T20:37:53.947Z,2.30
2023-02-24T20:41:00.352Z,1.93
2023-02-24T20:44:03.500Z,2.27
2023-02-24T20:47:06.474Z,2.40
2023-02-24T20:50:10.235Z,2.57
2023-02-24T20:53:13.199Z,2.47
2023-02-24T20:56:21.744Z,2.37
2023-02-24T20:59:24.976Z,2.50
2023-02-24T21:02:28.049Z,3.63
2023-02-24T21:05:31.025Z,2.83
2023-02-24T21:08:34.154Z,3.20
2023-02-24T21:11:38.459Z,2.50
2023-02-24T21:14:43.457Z,2.57
2023-02-24T21:17:46.593Z,2.57
2023-02-24T21:20:53.447Z,2.30
2023-02-24T21:23:56.940Z,2.00
2023-02-24T21:27:02.913Z,1.93
2023-02-24T21:30:06.937Z,2.07
2023-02-24T21:33:10.314Z,2.27
2023-02-24T21:36:15.715Z,1.80
2023-02-24T21:39:18.975Z,1.77
2023-02-24T21:42:23.439Z,1.33
2023-02-24T21:45:28.549Z,1.30
2023-02-24T21:48:31.496Z,1.27
2023-02-24T21:51:34.608Z,1.03
2023-02-24T21:54:37.849Z,1.20
2023-02-24T21:57:44.727Z,1.20
2023-02-24T22:00:47.694Z,1.90
2023-02-24T22:03:54.028Z,1.27
2023-02-24T22:06:57.002Z,1.17
2023-02-24T22:10:00.052Z,0.90
2023-02-24T22:13:04.471Z,0.83
2023-02-24T22:16:08.532Z,0.50
2023-02-24T22:19:11.837Z,0.37
2023-02-24T22:22:14.844Z,0.40
2023-02-24T22:25:18.000Z,0.50
2023-02-24T22:28:22.321Z,0.50
2023-02-24T22:31:29.803Z,0.70
2023-02-24T22:34:32.757Z,0.70
2023-02-24T22:37:35.714Z,0.57
2023-02-24T22:40:39.257Z,0.70
2023-02-24T22:43:44.146Z,0.50
2023-02-24T22:46:47.210Z,0.70
2023-02-24T22:49:50.170Z,0.57
2023-02-24T22:52:53.189Z,0.60
2023-02-24T22:55:57.542Z,0.60
2023-02-24T22:59:02.177Z,0.43
2023-02-24T23:02:05.150Z,0.60
2023-02-24T23:05:08.720Z,0.93
2023-02-24T23:08:11.953Z,0.67
2023-02-24T23:11:18.371Z,0.80
2023-02-24T23:14:22.762Z,0.60
2023-02-24T23:17:25.853Z,0.70
2023-02-24T23:20:28.825Z,0.60
2023-02-24T23:23:32.768Z,0.50
2023-02-24T23:26:38.322Z,0.50
2023-02-24T23:29:42.628Z,0.93
2023-02-24T23:32:45.720Z,0.70
2023-02-24T23:35:48.973Z,0.70
2023-02-24T23:38:52.064Z,0.60
2023-02-24T23:41:57.588Z,0.63
2023-02-24T23:45:02.093Z,0.80
2023-02-24T23:48:06.082Z,0.60
2023-02-24T23:51:12.291Z,0.80
2023-02-24T23:54:15.310Z,0.60
2023-02-24T23:57:18.627Z,0.60
